createdAt,value
2022-11-09T00:01:21.898Z,97890.94
2022-11-09T00:03:49.401Z,97884.03
2022-11-09T00:06:16.724Z,97886.13
2022-11-09T00:08:44.173Z,97888.31
2022-11-09T00:11:12.148Z,97890.41
2022-11-09T00:13:41.290Z,97892.00
2022-11-09T00:16:10.488Z,97891.00
2022-11-09T00:18:39.092Z,97878.94
2022-11-09T00:21:12.522Z,97893.81
2022-11-09T00:23:39.885Z,97879.38
2022-11-09T00:26:09.936Z,97893.03
2022-11-09T00:28:37.546Z,97894.00
2022-11-09T00:31:07.618Z,97894.59
2022-11-09T00:33:35.350Z,97894.94
2022-11-09T00:36:08.294Z,97893.16
2022-11-09T00:38:36.731Z,97868.59
2022-11-09T00:41:06.475Z,97899.63
2022-11-09T00:43:34.741Z,97898.38
2022-11-09T00:46:02.275Z,97900.59
2022-11-09T00:48:30.120Z,97894.44
2022-11-09T00:50:58.228Z,97904.66
2022-11-09T00:56:15.778Z,97910.22
2022-11-09T00:58:43.248Z,97909.56
2022-11-09T01:01:13.720Z,97911.56
2022-11-09T01:03:44.639Z,97903.94
2022-11-09T01:06:17.873Z,97908.75
2022-11-09T01:08:46.312Z,97918.25
2022-11-09T01:11:17.101Z,97916.69
2022-11-09T01:13:44.859Z,97913.78
2022-11-09T01:16:19.104Z,97917.84
2022-11-09T01:18:46.933Z,97909.56
2022-11-09T01:21:16.473Z,97910.00
2022-11-09T01:23:44.162Z,97909.50
2022-11-09T01:26:13.553Z,97911.06
2022-11-09T01:28:41.756Z,97906.66
2022-11-09T01:31:13.555Z,97911.50
2022-11-09T01:33:41.566Z,97907.00
2022-11-09T01:36:11.945Z,97913.09
2022-11-09T01:38:39.919Z,97911.19
2022-11-09T01:41:15.731Z,97907.84
2022-11-09T01:43:43.700Z,97916.09
2022-11-09T01:46:26.158Z,97909.16
2022-11-09T01:49:08.416Z,97907.72
2022-11-09T01:51:54.517Z,97911.75
2022-11-09T01:54:28.999Z,97910.50
2022-11-09T01:57:00.950Z,97907.84
2022-11-09T01:59:33.606Z,97913.19
2022-11-09T02:02:01.563Z,97908.50
2022-11-09T02:04:50.395Z,97914.25
2022-11-09T02:07:19.946Z,97912.56
2022-11-09T02:10:01.872Z,97910.97
2022-11-09T02:12:34.336Z,97909.22
2022-11-09T02:15:07.386Z,97915.03
2022-11-09T02:17:45.128Z,97918.84
2022-11-09T02:20:15.063Z,97918.16
2022-11-09T02:22:42.613Z,97913.47
2022-11-09T02:25:11.043Z,97918.34
2022-11-09T02:27:41.747Z,97917.13
2022-11-09T02:30:10.350Z,97911.31
2022-11-09T02:32:37.845Z,97917.00
2022-11-09T02:35:05.626Z,97918.88
2022-11-09T02:37:50.456Z,97920.38
2022-11-09T02:40:23.037Z,97916.59
2022-11-09T02:42:50.640Z,97918.69
2022-11-09T02:45:18.603Z,97917.25
2022-11-09T02:47:46.070Z,97906.06
2022-11-09T02:50:20.171Z,97912.63
2022-11-09T02:52:47.563Z,97902.03
2022-11-09T02:55:16.576Z,97914.25
2022-11-09T02:57:44.083Z,97908.13
2022-11-09T03:00:14.651Z,97917.06
2022-11-09T03:02:43.869Z,97911.56
2022-11-09T03:05:12.331Z,97910.47
2022-11-09T03:07:42.782Z,97906.22
2022-11-09T03:10:10.254Z,97908.88
2022-11-09T03:12:38.349Z,97911.25
2022-11-09T03:15:10.561Z,97913.72
2022-11-09T03:17:42.604Z,97905.88
2022-11-09T03:20:11.272Z,97910.56
2022-11-09T03:22:39.935Z,97905.78
2022-11-09T03:25:07.820Z,97925.03
2022-11-09T03:27:35.378Z,97923.13
2022-11-09T03:30:03.938Z,97921.75
2022-11-09T03:32:31.813Z,97916.47
2022-11-09T03:34:59.921Z,97922.91
2022-11-09T03:37:27.368Z,97914.09
2022-11-09T03:39:54.979Z,97922.44
2022-11-09T03:42:22.361Z,97914.09
2022-11-09T03:44:50.306Z,97917.22
2022-11-09T03:47:17.710Z,97913.78
2022-11-09T03:49:45.064Z,97916.22
2022-11-09T03:52:12.478Z,97916.38
2022-11-09T03:54:39.894Z,97919.81
2022-11-09T03:57:07.286Z,97919.72
2022-11-09T03:59:34.631Z,97923.84
2022-11-09T04:02:02.258Z,97913.13
2022-11-09T04:04:29.713Z,97914.03
2022-11-09T04:06:57.102Z,97901.06
2022-11-09T04:09:24.616Z,97896.41
2022-11-09T04:11:51.978Z,97899.44
2022-11-09T04:14:19.420Z,97903.66
2022-11-09T04:16:46.836Z,97910.16
2022-11-09T04:19:14.325Z,97902.97
2022-11-09T04:21:41.654Z,97905.75
2022-11-09T04:24:09.368Z,97913.03
2022-11-09T04:26:36.934Z,97908.91
2022-11-09T04:29:04.603Z,97913.16
2022-11-09T04:31:32.008Z,97903.34
2022-11-09T04:33:59.386Z,97902.69
2022-11-09T04:36:26.813Z,97908.81
2022-11-09T04:38:54.179Z,97903.78
2022-11-09T04:41:21.576Z,97907.72
2022-11-09T04:43:49.002Z,97904.69
2022-11-09T04:46:16.413Z,97902.59
2022-11-09T04:48:44.632Z,97905.41
2022-11-09T04:51:12.145Z,97898.03
2022-11-09T04:53:40.284Z,97911.44
